Time;durP1;ratioP1;P1;durP2;ratioP2;P2;SDS_P1;SDS_P2;PMS_P1;PMS_P2;Temp;Humidity;BMP_temperature;BMP_pressure;BME280_temperature;BME280_humidity;BME280_pressure;Samples;Min_cycle;Max_cycle;Signal;HPM_P1;HPM_P2
2022/06/19 00:01:23;;;;;;;2.65;0.38;;;15.40;99.90;;;;;;6073202;23;20071;-91
2022/06/19 00:03:54;;;;;;;1.73;0.52;;;15.40;99.90;;;;;;6073037;23;20510;-91
2022/06/19 00:06:20;;;;;;;2.28;0.20;;;15.30;99.90;;;;;;6072714;23;20018;-91
2022/06/19 00:08:48;;;;;;;0.68;0.20;;;15.30;99.90;;;;;;6097027;23;20041;-91
2022/06/19 00:11:16;;;;;;;2.92;0.30;;;15.30;99.90;;;;;;6072930;23;20394;-92
2022/06/19 00:13:42;;;;;;;2.95;0.50;;;15.20;99.90;;;;;;6072830;23;20427;-91
2022/06/19 00:16:08;;;;;;;2.22;0.40;;;15.20;99.90;;;;;;6072673;23;20018;-92
2022/06/19 00:18:35;;;;;;;3.40;0.55;;;15.20;99.90;;;;;;6073281;23;20020;-90
2022/06/19 00:21:01;;;;;;;1.70;0.20;;;15.10;99.90;;;;;;6073262;23;20048;-91
2022/06/19 00:23:27;;;;;;;1.63;0.30;;;15.20;99.90;;;;;;6072684;23;20018;-90
2022/06/19 00:25:52;;;;;;;2.20;0.30;;;15.20;99.90;;;;;;6072966;23;20022;-90
2022/06/19 00:28:18;;;;;;;1.40;0.30;;;15.20;99.90;;;;;;6074255;23;20018;-93
2022/06/19 00:30:44;;;;;;;1.75;0.30;;;15.20;99.90;;;;;;6074224;23;20355;-93
2022/06/19 00:33:10;;;;;;;3.67;0.50;;;15.20;99.90;;;;;;6080346;23;20025;-90
2022/06/19 00:35:35;;;;;;;3.30;0.50;;;15.20;99.90;;;;;;6080902;23;20025;-92
2022/06/19 00:38:01;;;;;;;2.55;0.32;;;15.20;99.90;;;;;;6074630;23;20018;-92
2022/06/19 00:40:29;;;;;;;3.87;0.63;;;15.10;99.90;;;;;;6074341;23;20021;-93
2022/06/19 00:42:55;;;;;;;2.33;0.35;;;15.10;99.90;;;;;;6074351;23;20284;-92
2022/06/19 00:45:38;;;;;;;4.35;0.47;;;15.10;99.90;;;;;;6073854;23;20444;-92
2022/06/19 00:48:18;;;;;;;5.93;0.82;;;15.10;99.90;;;;;;6074058;23;20032;-91
2022/06/19 00:50:49;;;;;;;3.42;0.52;;;15.10;99.90;;;;;;6073912;23;20025;-92
2022/06/19 00:53:45;;;;;;;1.92;0.60;;;15.10;99.90;;;;;;6074141;23;20056;-92
2022/06/19 01:19:36;;;;;;;4.45;0.88;;;15.30;99.90;;;;;;6114098;22;20056;-90
2022/06/19 01:23:08;;;;;;;2.25;0.82;;;15.30;99.90;;;;;;6220831;23;20020;-92
2022/06/19 01:26:26;;;;;;;1.88;0.50;;;15.30;99.90;;;;;;6196679;23;20020;-91
2022/06/19 01:35:58;;;;;;;1.70;0.32;;;15.30;99.90;;;;;;6215588;23;20020;-89
2022/06/19 01:38:49;;;;;;;6.50;0.73;;;15.30;99.90;;;;;;6060303;23;20014;-88
2022/06/19 01:43:50;;;;;;;2.75;0.70;;;15.20;99.90;;;;;;6118296;23;20026;-88
2022/06/19 02:25:38;;;;;;;;;;;;;;;;;;;;;
2022/06/19 03:00:10;;;;;;;3.25;0.50;;;14.80;99.90;;;;;;6242571;22;20024;-89
2022/06/19 03:03:26;;;;;;;3.60;0.77;;;14.80;99.90;;;;;;6220490;23;20150;-89
2022/06/19 03:06:11;;;;;;;3.28;0.40;;;14.80;99.90;;;;;;6267027;22;20015;-89
2022/06/19 03:09:32;;;;;;;2.03;0.45;;;14.80;99.90;;;;;;6220066;23;20077;-89
2022/06/19 03:12:27;;;;;;;3.58;0.40;;;14.80;99.90;;;;;;6186728;23;20453;-89
2022/06/19 03:14:52;;;;;;;2.85;0.50;;;14.80;99.90;;;;;;6238810;23;20091;-89
2022/06/19 03:17:20;;;;;;;2.93;0.50;;;14.80;99.90;;;;;;6219815;23;20480;-91
2022/06/19 03:19:46;;;;;;;2.60;0.65;;;14.80;99.90;;;;;;6221132;23;20279;-91
2022/06/19 03:45:33;;;;;;;6.35;0.95;;;14.40;99.90;;;;;;6231233;22;20477;-90
2022/06/19 05:54:19;;;;;;;2.10;0.50;;;12.70;99.90;;;;;;6225892;22;20052;-92
2022/06/19 07:55:25;;;;;;;0.40;0.35;;;13.70;99.90;;;;;;6218289;22;20020;-91
2022/06/19 07:58:48;;;;;;;0.90;0.38;;;13.70;99.90;;;;;;6195520;23;20078;-91
2022/06/19 08:01:39;;;;;;;2.53;0.45;;;13.80;99.90;;;;;;6194867;23;20023;-90
2022/06/19 08:04:05;;;;;;;4.10;0.80;;;13.70;99.90;;;;;;6219520;23;20020;-91
2022/06/19 10:02:49;;;;;;;2.55;0.30;;;14.40;99.90;;;;;;6234001;22;20028;-90
2022/06/19 13:34:48;;;;;;;3.97;0.47;;;16.30;99.90;;;;;;6283326;22;20019;-91
2022/06/19 13:37:36;;;;;;;1.95;0.20;;;16.50;99.90;;;;;;6226496;22;20024;-90
2022/06/19 13:40:10;;;;;;;;;;;16.60;99.90;;;;;;6227039;22;20015;-89
2022/06/19 13:43:16;;;;;;;2.55;0.43;;;16.60;99.90;;;;;;6225830;22;19919;-90
2022/06/19 13:45:51;;;;;;;3.50;0.30;;;16.50;99.90;;;;;;6225985;22;20016;-93
2022/06/19 13:48:23;;;;;;;1.45;0.30;;;16.50;99.90;;;;;;6226520;22;20020;-95
2022/06/19 13:51:47;;;;;;;1.38;0.28;;;16.50;99.90;;;;;;6226570;22;20515;-95
2022/06/19 14:15:25;;;;;;;3.05;0.30;;;17.00;99.90;;;;;;6188981;22;20040;-90
2022/06/19 14:18:11;;;;;;;1.33;0.30;;;17.10;99.90;;;;;;6161319;23;20020;-89
2022/06/19 14:21:35;;;;;;;2.70;0.55;;;17.10;99.90;;;;;;6159875;23;20014;-93
2022/06/19 14:24:25;;;;;;;2.65;0.30;;;17.00;99.90;;;;;;6154923;23;20013;-94
2022/06/19 14:50:55;;;;;;;1.15;0.20;;;16.70;99.90;;;;;;6213096;22;20028;-93
2022/06/19 14:53:42;;;;;;;4.68;0.50;;;16.80;99.90;;;;;;6190616;23;20028;-94
2022/06/19 14:56:41;;;;;;;1.27;0.30;;;16.90;99.90;;;;;;6190805;23;20450;-92
2022/06/19 14:59:18;;;;;;;2.65;0.38;;;17.00;99.90;;;;;;6190822;23;20143;-91
2022/06/19 15:01:48;;;;;;;2.45;0.57;;;17.10;99.90;;;;;;6196913;23;20012;-89
2022/06/19 15:04:21;;;;;;;1.83;0.38;;;17.00;99.90;;;;;;6192259;23;20024;-89
2022/06/19 15:07:30;;;;;;;1.25;0.30;;;17.00;99.90;;;;;;6190242;23;20028;-91
2022/06/19 15:10:31;;;;;;;1.35;0.25;;;17.00;99.90;;;;;;6190377;23;20024;-92
2022/06/19 15:18:19;;;;;;;2.80;0.47;;;17.00;99.90;;;;;;6186601;23;20351;-93
2022/06/19 15:24:14;;;;;;;2.92;0.57;;;17.10;99.90;;;;;;6183906;23;20035;-91
2022/06/19 15:26:44;;;;;;;1.67;0.22;;;17.10;99.90;;;;;;6185733;23;20389;-90
2022/06/19 15:42:25;;;;;;;2.67;0.32;;;16.80;99.90;;;;;;6186906;22;20409;-90
2022/06/19 17:08:44;;;;;;;1.55;0.38;;;15.90;99.90;;;;;;6276857;22;20031;-88
2022/06/19 17:12:01;;;;;;;2.05;0.38;;;15.90;99.90;;;;;;6255774;22;20071;-90
